Time;durP1;ratioP1;P1;durP2;ratioP2;P2;SDS_P1;SDS_P2;PMS_P1;PMS_P2;Temp;Humidity;BMP_temperature;BMP_pressure;BME280_temperature;BME280_humidity;BME280_pressure;Samples;Min_cycle;Max_cycle;Signal;HPM_P1;HPM_P2
2022/01/08 00:00:52;;;;;;;17.02;5.82;;;;;;;;;;4682392;30;20648;-67
2022/01/08 00:03:22;;;;;;;16.40;5.93;;;;;;;;;;4681955;30;20058;-67
2022/01/08 00:05:56;;;;;;;15.98;5.68;;;;;;;;;;4674423;30;20512;-69
2022/01/08 00:08:27;;;;;;;19.58;5.28;;;;;;;;;;4667634;30;20511;-70
2022/01/08 00:10:58;;;;;;;16.30;3.95;;;;;;;;;;4699739;30;20419;-66
2022/01/08 00:13:28;;;;;;;13.13;4.55;;;;;;;;;;4690420;30;20499;-67
2022/01/08 00:15:58;;;;;;;14.50;5.25;;;;;;;;;;4682294;30;20073;-68
2022/01/08 00:18:29;;;;;;;11.57;4.53;;;;;;;;;;4699471;30;20061;-67
2022/01/08 00:20:59;;;;;;;12.88;4.78;;;;;;;;;;4716745;30;20209;-67
2022/01/08 00:23:30;;;;;;;15.93;4.68;;;;;;;;;;4707778;30;20541;-68
2022/01/08 00:26:01;;;;;;;15.38;4.90;;;;;;;;;;4713705;30;20503;-67
2022/01/08 00:28:31;;;;;;;9.43;4.10;;;;;;;;;;4699428;30;20427;-67
2022/01/08 00:31:03;;;;;;;15.23;4.70;;;;;;;;;;4699242;30;20069;-70
2022/01/08 00:33:33;;;;;;;13.90;4.10;;;;;;;;;;4734659;30;20060;-69
2022/01/08 00:36:05;;;;;;;10.00;4.32;;;;;;;;;;4722174;30;20060;-67
2022/01/08 00:38:36;;;;;;;11.43;4.45;;;;;;;;;;4751626;30;20071;-67
2022/01/08 00:41:06;;;;;;;10.93;4.07;;;;;;;;;;4751733;30;20075;-67
2022/01/08 00:43:37;;;;;;;7.68;3.40;;;;;;;;;;4751528;30;20409;-67
2022/01/08 00:46:07;;;;;;;14.43;4.45;;;;;;;;;;4737449;30;20071;-67
2022/01/08 00:48:38;;;;;;;16.13;4.38;;;;;;;;;;4751419;30;20219;-67
2022/01/08 00:51:08;;;;;;;8.25;3.78;;;;;;;;;;4733628;30;20521;-68
2022/01/08 00:53:39;;;;;;;8.55;4.05;;;;;;;;;;4733359;30;20048;-69
2022/01/08 00:56:09;;;;;;;7.97;4.18;;;;;;;;;;4733822;30;20065;-69
2022/01/08 00:58:41;;;;;;;8.15;4.10;;;;;;;;;;4733649;30;20061;-69
2022/01/08 01:01:11;;;;;;;8.25;4.28;;;;;;;;;;4752403;30;20548;-69
2022/01/08 01:03:41;;;;;;;9.25;4.63;;;;;;;;;;4769007;30;20191;-69
2022/01/08 01:06:12;;;;;;;8.63;3.80;;;;;;;;;;4768841;30;20109;-69
2022/01/08 01:08:42;;;;;;;12.75;3.80;;;;;;;;;;4733193;30;20061;-70
2022/01/08 01:11:13;;;;;;;8.38;3.70;;;;;;;;;;4698377;30;20053;-66
2022/01/08 01:13:43;;;;;;;13.90;4.20;;;;;;;;;;4698538;30;20062;-67
2022/01/08 01:16:13;;;;;;;6.05;3.15;;;;;;;;;;4698141;30;20061;-67
2022/01/08 01:18:43;;;;;;;9.38;3.30;;;;;;;;;;4698209;30;20058;-71
2022/01/08 01:21:13;;;;;;;7.25;3.15;;;;;;;;;;4698460;30;20058;-70
2022/01/08 01:23:47;;;;;;;8.23;2.63;;;;;;;;;;4680966;30;20054;-69
2022/01/08 01:26:22;;;;;;;5.15;2.40;;;;;;;;;;4681259;30;20062;-68
2022/01/08 01:29:02;;;;;;;12.35;2.42;;;;;;;;;;4699495;30;20061;-67
2022/01/08 01:43:19;;;;;;;5.30;2.72;;;;;;;;;;4669277;30;20071;-69
2022/01/08 01:48:33;;;;;;;9.02;2.85;;;;;;;;;;4710858;30;20061;-70
2022/01/08 01:51:03;;;;;;;4.32;2.55;;;;;;;;;;4718081;30;20064;-70
2022/01/08 01:53:33;;;;;;;4.38;2.38;;;;;;;;;;4756960;30;20051;-70
2022/01/08 01:56:04;;;;;;;4.93;2.35;;;;;;;;;;4738427;30;20631;-70
2022/01/08 01:58:35;;;;;;;9.77;3.28;;;;;;;;;;4753665;30;20063;-70
2022/01/08 02:01:05;;;;;;;7.28;2.78;;;;;;;;;;4761341;30;20060;-70
2022/01/08 02:03:35;;;;;;;7.40;2.25;;;;;;;;;;4732319;30;20068;-70
2022/01/08 02:06:07;;;;;;;8.75;3.03;;;;;;;;;;4732385;30;20056;-70
2022/01/08 02:08:39;;;;;;;6.88;2.50;;;;;;;;;;4732368;30;20061;-69
2022/01/08 02:11:10;;;;;;;5.68;2.60;;;;;;;;;;4732434;30;20069;-69
2022/01/08 02:13:40;;;;;;;7.28;2.72;;;;;;;;;;4689120;30;20076;-69
2022/01/08 02:16:16;;;;;;;7.53;2.92;;;;;;;;;;4746535;30;20056;-69
2022/01/08 02:18:50;;;;;;;6.38;2.63;;;;;;;;;;4749343;30;20557;-69
2022/01/08 02:21:20;;;;;;;9.48;2.33;;;;;;;;;;4749909;30;20060;-69
2022/01/08 02:23:51;;;;;;;7.65;2.20;;;;;;;;;;4752477;30;20139;-69
2022/01/08 02:26:21;;;;;;;7.60;2.95;;;;;;;;;;4749690;30;20056;-69
2022/01/08 02:28:51;;;;;;;9.38;3.38;;;;;;;;;;4749831;30;20071;-70
2022/01/08 02:31:24;;;;;;;7.72;3.00;;;;;;;;;;4747041;30;20563;-71
2022/01/08 02:33:55;;;;;;;7.47;2.50;;;;;;;;;;4764524;30;20048;-70
2022/01/08 02:36:26;;;;;;;10.57;3.25;;;;;;;;;;4720418;30;20065;-69
2022/01/08 02:38:56;;;;;;;7.85;2.90;;;;;;;;;;4749857;30;20429;-69
2022/01/08 02:41:27;;;;;;;6.72;3.50;;;;;;;;;;4731763;30;20066;-68
2022/01/08 02:43:58;;;;;;;10.43;3.60;;;;;;;;;;4742482;30;20198;-69
2022/01/08 02:46:29;;;;;;;6.53;2.85;;;;;;;;;;4749446;30;20075;-69
2022/01/08 02:48:59;;;;;;;5.93;2.47;;;;;;;;;;4749547;30;20478;-70
2022/01/08 02:51:33;;;;;;;5.93;2.63;;;;;;;;;;4720121;30;20060;-69
2022/01/08 02:54:09;;;;;;;10.85;3.15;;;;;;;;;;4749676;30;20060;-69
2022/01/08 02:56:44;;;;;;;5.32;2.50;;;;;;;;;;4733546;30;20063;-69
2022/01/08 02:59:15;;;;;;;7.00;2.90;;;;;;;;;;4749373;30;20060;-69
2022/01/08 03:01:47;;;;;;;5.50;2.65;;;;;;;;;;4749510;30;20552;-68
2022/01/08 03:04:18;;;;;;;5.18;2.90;;;;;;;;;;4749530;30;20083;-69
2022/01/08 03:06:48;;;;;;;7.70;2.65;;;;;;;;;;4749105;30;20063;-70
2022/01/08 03:09:18;;;;;;;5.90;2.67;;;;;;;;;;4749129;30;20056;-69
2022/01/08 03:11:49;;;;;;;5.30;2.22;;;;;;;;;;4738474;30;20464;-68
2022/01/08 03:14:19;;;;;;;8.40;2.65;;;;;;;;;;4731869;30;20065;-71
2022/01/08 03:16:49;;;;;;;10.55;3.05;;;;;;;;;;4766554;30;20056;-69
2022/01/08 03:19:19;;;;;;;7.60;2.15;;;;;;;;;;4738369;30;20418;-69
2022/01/08 03:21:53;;;;;;;4.78;2.45;;;;;;;;;;4731604;30;20061;-69
2022/01/08 03:24:28;;;;;;;6.65;2.63;;;;;;;;;;4731770;30;20060;-68
2022/01/08 03:26:59;;;;;;;9.02;2.60;;;;;;;;;;4731579;30;20076;-68
2022/01/08 03:29:29;;;;;;;7.95;2.90;;;;;;;;;;4731687;30;20064;-69
2022/01/08 03:32:00;;;;;;;6.93;1.90;;;;;;;;;;4731375;30;20060;-69
2022/01/08 03:34:30;;;;;;;11.82;1.88;;;;;;;;;;4731426;30;20465;-69
2022/01/08 03:37:00;;;;;;;7.65;2.30;;;;;;;;;;4716888;30;20072;-68
2022/01/08 03:39:30;;;;;;;9.52;2.55;;;;;;;;;;4731295;30;20052;-69
2022/01/08 03:42:01;;;;;;;9.88;2.72;;;;;;;;;;4731429;30;20068;-69
2022/01/08 03:44:32;;;;;;;7.47;2.08;;;;;;;;;;4750156;30;20445;-69
2022/01/08 03:47:41;;;;;;;7.97;3.33;;;;;;;;;;4751933;30;20569;-69
2022/01/08 03:50:11;;;;;;;8.68;2.70;;;;;;;;;;4766699;30;20063;-68
2022/01/08 03:52:41;;;;;;;7.22;2.30;;;;;;;;;;4748775;30;20418;-69
2022/01/08 03:55:12;;;;;;;6.63;2.10;;;;;;;;;;4733987;30;20057;-69
2022/01/08 03:57:43;;;;;;;6.80;2.58;;;;;;;;;;4699624;30;20577;-69
2022/01/08 04:00:14;;;;;;;7.78;2.63;;;;;;;;;;4661749;30;20058;-69
2022/01/08 04:02:44;;;;;;;8.07;2.50;;;;;;;;;;4662485;30;20179;-69
2022/01/08 04:05:15;;;;;;;6.70;2.53;;;;;;;;;;4662295;30;20063;-70
2022/01/08 04:07:46;;;;;;;7.10;2.60;;;;;;;;;;4642678;30;20059;-69
2022/01/08 04:10:16;;;;;;;6.03;3.72;;;;;;;;;;4631597;30;20067;-69
2022/01/08 04:12:51;;;;;;;7.57;2.20;;;;;;;;;;4631345;30;20060;-69
2022/01/08 04:17:55;;;;;;;6.32;2.65;;;;;;;;;;4627571;31;20057;-69
2022/01/08 04:20:26;;;;;;;8.15;2.50;;;;;;;;;;4631244;31;20070;-68
2022/01/08 04:22:56;;;;;;;6.22;2.80;;;;;;;;;;4631491;31;20079;-69
2022/01/08 04:25:26;;;;;;;11.27;2.92;;;;;;;;;;4617728;31;20074;-70
2022/01/08 04:27:57;;;;;;;8.82;2.13;;;;;;;;;;4614261;31;20063;-69
2022/01/08 04:30:27;;;;;;;6.40;2.47;;;;;;;;;;4614056;31;20060;-69
2022/01/08 04:32:57;;;;;;;7.53;2.90;;;;;;;;;;4605540;31;20068;-69
2022/01/08 04:35:28;;;;;;;7.50;2.50;;;;;;;;;;4615881;31;20071;-68
2022/01/08 04:37:58;;;;;;;5.90;2.55;;;;;;;;;;4650969;30;20062;-69
2022/01/08 04:40:29;;;;;;;8.90;3.05;;;;;;;;;;4682020;30;20062;-69
2022/01/08 04:43:01;;;;;;;5.93;2.60;;;;;;;;;;4681683;30;20066;-69
2022/01/08 04:45:31;;;;;;;6.22;2.47;;;;;;;;;;4672673;30;20058;-69
2022/01/08 04:48:02;;;;;;;7.97;2.25;;;;;;;;;;4651031;30;20566;-69
2022/01/08 04:50:33;;;;;;;7.00;2.95;;;;;;;;;;4664965;30;20077;-69
2022/01/08 04:53:03;;;;;;;6.80;1.98;;;;;;;;;;4673563;30;20070;-69
2022/01/08 04:55:33;;;;;;;5.65;2.03;;;;;;;;;;4699529;30;20072;-69
2022/01/08 04:58:05;;;;;;;6.35;2.17;;;;;;;;;;4701782;30;20061;-69
2022/01/08 05:00:37;;;;;;;9.20;2.42;;;;;;;;;;4716393;30;20095;-69
2022/01/08 05:03:07;;;;;;;7.32;2.28;;;;;;;;;;4733381;30;20057;-69
2022/01/08 05:05:38;;;;;;;6.22;2.50;;;;;;;;;;4742750;30;20060;-69
2022/01/08 05:08:08;;;;;;;11.68;4.13;;;;;;;;;;4751387;30;20068;-69
2022/01/08 05:10:38;;;;;;;7.55;2.78;;;;;;;;;;4751054;30;20522;-69
2022/01/08 05:13:08;;;;;;;6.28;2.90;;;;;;;;;;4750838;30;20056;-70
2022/01/08 05:15:39;;;;;;;8.23;2.50;;;;;;;;;;4741955;30;20086;-70
2022/01/08 05:18:11;;;;;;;7.97;3.35;;;;;;;;;;4715647;30;20056;-69
2022/01/08 05:20:45;;;;;;;6.07;2.83;;;;;;;;;;4723878;30;20053;-70
2022/01/08 05:23:16;;;;;;;8.35;2.03;;;;;;;;;;4733091;30;20082;-70
2022/01/08 05:25:46;;;;;;;6.63;2.72;;;;;;;;;;4719046;30;20065;-70
2022/01/08 05:28:19;;;;;;;5.47;2.33;;;;;;;;;;4733113;30;20067;-69
2022/01/08 05:30:50;;;;;;;8.23;3.10;;;;;;;;;;4732882;30;20106;-69
2022/01/08 05:33:20;;;;;;;8.18;2.90;;;;;;;;;;4698064;30;20074;-70
2022/01/08 05:35:50;;;;;;;9.40;2.70;;;;;;;;;;4698422;30;20068;-70
2022/01/08 05:38:21;;;;;;;8.73;2.40;;;;;;;;;;4698044;30;20057;-69
2022/01/08 05:40:51;;;;;;;5.13;2.53;;;;;;;;;;4718628;30;20070;-70
2022/01/08 05:43:21;;;;;;;8.48;3.30;;;;;;;;;;4732805;30;20071;-70
2022/01/08 05:45:52;;;;;;;7.57;3.03;;;;;;;;;;4733043;30;20059;-70
2022/01/08 05:48:22;;;;;;;7.15;2.47;;;;;;;;;;4742079;30;20056;-70
2022/01/08 05:50:52;;;;;;;6.82;2.08;;;;;;;;;;4726642;30;20060;-70
2022/01/08 05:53:23;;;;;;;10.70;2.60;;;;;;;;;;4747242;30;20461;-70
2022/01/08 05:55:53;;;;;;;8.65;2.78;;;;;;;;;;4752016;30;20064;-70
2022/01/08 05:58:23;;;;;;;6.88;2.08;;;;;;;;;;4777470;30;20413;-69
2022/01/08 06:00:53;;;;;;;6.38;2.67;;;;;;;;;;4786099;30;20055;-69
2022/01/08 06:03:26;;;;;;;5.47;2.22;;;;;;;;;;4785450;30;20432;-70
2022/01/08 06:05:57;;;;;;;6.97;2.33;;;;;;;;;;4785552;30;20194;-70
2022/01/08 06:08:27;;;;;;;9.05;2.97;;;;;;;;;;4749925;30;20056;-70
2022/01/08 06:10:57;;;;;;;7.72;2.33;;;;;;;;;;4759042;30;20070;-69
2022/01/08 06:13:27;;;;;;;8.60;2.30;;;;;;;;;;4767850;30;20068;-69
2022/01/08 06:15:57;;;;;;;7.07;2.58;;;;;;;;;;4767652;30;20055;-69
2022/01/08 06:18:28;;;;;;;9.32;3.10;;;;;;;;;;4752953;30;20083;-70
2022/01/08 06:20:59;;;;;;;5.75;2.70;;;;;;;;;;4767726;30;20059;-69
2022/01/08 06:23:30;;;;;;;9.07;3.13;;;;;;;;;;4767750;30;20073;-70
2022/01/08 06:26:01;;;;;;;7.95;2.22;;;;;;;;;;4749822;30;20425;-70
2022/01/08 06:28:33;;;;;;;5.22;2.47;;;;;;;;;;4749735;30;20064;-69
2022/01/08 06:31:03;;;;;;;6.93;3.30;;;;;;;;;;4749667;30;20064;-70
2022/01/08 06:33:33;;;;;;;7.80;3.33;;;;;;;;;;4749789;30;20517;-70
2022/01/08 06:36:03;;;;;;;9.07;3.03;;;;;;;;;;4750000;30;20059;-70
2022/01/08 06:38:34;;;;;;;9.30;3.13;;;;;;;;;;4749745;30;20133;-70
2022/01/08 06:41:04;;;;;;;7.40;2.70;;;;;;;;;;4763946;30;20528;-70
2022/01/08 06:43:34;;;;;;;7.80;2.58;;;;;;;;;;4749676;30;20059;-70
2022/01/08 06:46:04;;;;;;;8.90;2.30;;;;;;;;;;4750008;30;20442;-70
2022/01/08 06:48:35;;;;;;;8.93;3.15;;;;;;;;;;4749629;30;20060;-70
2022/01/08 06:51:05;;;;;;;5.63;2.78;;;;;;;;;;4749788;30;20502;-70
2022/01/08 06:53:36;;;;;;;5.85;2.33;;;;;;;;;;4749570;30;20684;-70
2022/01/08 06:56:06;;;;;;;8.25;2.80;;;;;;;;;;4749522;30;20502;-70
2022/01/08 06:58:36;;;;;;;8.30;2.22;;;;;;;;;;4749598;30;20442;-70
2022/01/08 07:01:07;;;;;;;8.63;3.03;;;;;;;;;;4731681;30;20063;-71
2022/01/08 07:03:37;;;;;;;4.85;2.38;;;;;;;;;;4717652;30;20061;-70
2022/01/08 07:06:07;;;;;;;6.68;3.03;;;;;;;;;;4732005;30;20196;-70
2022/01/08 07:08:38;;;;;;;11.35;3.38;;;;;;;;;;4731912;30;20142;-70
2022/01/08 07:11:08;;;;;;;11.75;3.33;;;;;;;;;;4731494;30;20063;-70
2022/01/08 07:13:38;;;;;;;6.25;2.72;;;;;;;;;;4731799;30;20064;-70
2022/01/08 07:16:09;;;;;;;9.20;3.00;;;;;;;;;;4731683;30;20052;-70
2022/01/08 07:18:39;;;;;;;8.80;2.85;;;;;;;;;;4723403;30;20072;-70
2022/01/08 07:21:09;;;;;;;7.60;2.63;;;;;;;;;;4722871;30;20068;-70
2022/01/08 07:23:39;;;;;;;8.07;2.20;;;;;;;;;;4731787;30;20064;-70
2022/01/08 07:26:10;;;;;;;8.18;2.92;;;;;;;;;;4732053;30;20076;-70
2022/01/08 07:28:40;;;;;;;6.97;2.95;;;;;;;;;;4731667;30;20079;-70
2022/01/08 07:31:10;;;;;;;6.40;2.47;;;;;;;;;;4731553;30;20060;-71
2022/01/08 07:33:40;;;;;;;7.88;3.22;;;;;;;;;;4731681;30;20060;-71
2022/01/08 07:36:11;;;;;;;8.80;2.78;;;;;;;;;;4717378;30;20102;-70
2022/01/08 07:38:50;;;;;;;5.82;3.42;;;;;;;;;;4759349;30;20401;-71
2022/01/08 07:41:20;;;;;;;8.57;2.70;;;;;;;;;;4748729;30;20048;-71
2022/01/08 07:43:50;;;;;;;7.53;2.00;;;;;;;;;;4751888;30;20446;-70
2022/01/08 07:46:21;;;;;;;7.03;2.97;;;;;;;;;;4752341;30;20064;-71
2022/01/08 07:48:51;;;;;;;9.45;3.05;;;;;;;;;;4743076;30;20072;-71
2022/01/08 07:51:22;;;;;;;7.40;2.40;;;;;;;;;;4719955;30;20064;-70
2022/01/08 07:53:52;;;;;;;5.82;2.20;;;;;;;;;;4734855;30;20068;-71
2022/01/08 07:56:22;;;;;;;7.78;3.05;;;;;;;;;;4734388;30;20491;-71
2022/01/08 07:58:53;;;;;;;8.07;2.45;;;;;;;;;;4734773;30;20634;-71
2022/01/08 08:01:23;;;;;;;9.15;2.78;;;;;;;;;;4734333;30;20053;-71
2022/01/08 08:03:54;;;;;;;6.50;2.00;;;;;;;;;;4752002;30;20387;-71
2022/01/08 08:06:24;;;;;;;6.78;2.53;;;;;;;;;;4752187;30;20069;-71
2022/01/08 08:08:54;;;;;;;6.05;2.28;;;;;;;;;;4708671;30;20520;-70
2022/01/08 08:11:24;;;;;;;6.30;2.45;;;;;;;;;;4752285;30;20072;-70
2022/01/08 08:13:55;;;;;;;5.32;2.63;;;;;;;;;;4738041;30;20068;-71
2022/01/08 08:16:25;;;;;;;9.23;2.90;;;;;;;;;;4752098;30;20223;-70
2022/01/08 08:18:56;;;;;;;10.85;3.50;;;;;;;;;;4716814;30;20060;-70
2022/01/08 08:21:26;;;;;;;6.68;2.40;;;;;;;;;;4769585;30;20660;-71
2022/01/08 08:23:56;;;;;;;11.93;3.10;;;;;;;;;;4751880;30;20537;-71
2022/01/08 08:26:26;;;;;;;9.68;2.88;;;;;;;;;;4751774;30;20553;-71
2022/01/08 08:28:56;;;;;;;5.95;2.58;;;;;;;;;;4737307;30;20564;-70
2022/01/08 08:31:27;;;;;;;7.32;2.90;;;;;;;;;;4764391;30;20060;-70
2022/01/08 08:33:58;;;;;;;7.18;2.92;;;;;;;;;;4751478;30;20059;-70
2022/01/08 08:36:28;;;;;;;9.60;3.08;;;;;;;;;;4751398;30;20052;-70
2022/01/08 08:38:58;;;;;;;7.93;2.90;;;;;;;;;;4760202;30;20458;-70
2022/01/08 08:41:28;;;;;;;8.43;2.80;;;;;;;;;;4722208;30;20054;-69
2022/01/08 08:43:59;;;;;;;8.55;3.03;;;;;;;;;;4699308;30;20601;-70
2022/01/08 08:46:29;;;;;;;8.38;2.80;;;;;;;;;;4698937;30;20061;-70
2022/01/08 08:48:59;;;;;;;6.88;2.97;;;;;;;;;;4699112;30;20164;-70
2022/01/08 08:51:29;;;;;;;6.07;2.53;;;;;;;;;;4684403;30;20057;-71
2022/01/08 08:54:02;;;;;;;7.57;2.45;;;;;;;;;;4684250;30;20061;-70
2022/01/08 08:56:33;;;;;;;8.38;3.97;;;;;;;;;;4670123;30;20061;-70
2022/01/08 08:59:03;;;;;;;8.07;2.78;;;;;;;;;;4681325;30;20065;-70
2022/01/08 09:01:33;;;;;;;5.85;2.25;;;;;;;;;;4689984;30;20423;-70
2022/01/08 09:04:04;;;;;;;7.07;2.80;;;;;;;;;;4698773;30;20066;-70
2022/01/08 09:06:35;;;;;;;8.07;2.80;;;;;;;;;;4698651;30;20423;-70
2022/01/08 09:09:06;;;;;;;9.25;3.03;;;;;;;;;;4698819;30;20510;-70
2022/01/08 09:11:37;;;;;;;11.43;3.60;;;;;;;;;;4666301;30;20065;-70
2022/01/08 09:14:07;;;;;;;7.07;2.65;;;;;;;;;;4690031;30;20069;-70
2022/01/08 09:16:39;;;;;;;7.30;2.50;;;;;;;;;;4700315;30;20066;-70
2022/01/08 09:19:10;;;;;;;7.72;2.72;;;;;;;;;;4724812;30;20059;-70
2022/01/08 09:21:40;;;;;;;6.07;2.40;;;;;;;;;;4718978;30;20486;-71
2022/01/08 09:24:10;;;;;;;7.35;2.97;;;;;;;;;;4715592;30;20066;-70
2022/01/08 09:26:41;;;;;;;10.15;1.90;;;;;;;;;;4687063;30;20537;-70
2022/01/08 09:29:12;;;;;;;7.38;2.47;;;;;;;;;;4715455;30;20068;-70
2022/01/08 09:31:42;;;;;;;10.95;2.72;;;;;;;;;;4680797;30;20416;-70
2022/01/08 09:34:13;;;;;;;7.60;2.80;;;;;;;;;;4680705;30;20558;-71
2022/01/08 09:36:44;;;;;;;7.05;1.70;;;;;;;;;;4672064;30;20519;-71
2022/01/08 09:39:15;;;;;;;8.07;2.15;;;;;;;;;;4663984;30;20067;-71
2022/01/08 09:41:46;;;;;;;6.00;2.13;;;;;;;;;;4663876;30;20137;-72
2022/01/08 09:44:16;;;;;;;8.85;2.50;;;;;;;;;;4664079;30;20078;-71
2022/01/08 09:46:46;;;;;;;5.50;2.13;;;;;;;;;;4650093;30;20062;-71
2022/01/08 09:49:17;;;;;;;5.40;2.50;;;;;;;;;;4680363;30;20074;-71
2022/01/08 09:51:47;;;;;;;8.20;2.40;;;;;;;;;;4663474;30;20051;-71
2022/01/08 09:54:17;;;;;;;8.75;2.20;;;;;;;;;;4680134;30;20062;-71
2022/01/08 09:56:48;;;;;;;6.78;1.90;;;;;;;;;;4663165;30;20057;-70
2022/01/08 09:59:18;;;;;;;5.28;1.73;;;;;;;;;;4663504;30;20436;-70
2022/01/08 10:01:58;;;;;;;5.53;1.85;;;;;;;;;;4663292;30;20071;-70
2022/01/08 10:04:38;;;;;;;9.35;2.30;;;;;;;;;;4675758;30;20054;-70
2022/01/08 10:07:17;;;;;;;10.23;1.95;;;;;;;;;;4624440;30;20473;-70
2022/01/08 10:10:04;;;;;;;12.70;2.28;;;;;;;;;;4657545;30;20081;-69
2022/01/08 10:12:59;;;;;;;7.45;2.05;;;;;;;;;;4662997;30;20070;-70
2022/01/08 10:18:32;;;;;;;8.00;1.90;;;;;;;;;;4680325;30;20062;-70
2022/01/08 10:21:27;;;;;;;5.85;1.75;;;;;;;;;;4680199;30;20066;-70
2022/01/08 10:24:08;;;;;;;7.22;1.63;;;;;;;;;;4650722;30;20067;-70
2022/01/08 10:26:41;;;;;;;6.15;1.45;;;;;;;;;;4669342;30;20069;-68
2022/01/08 10:29:17;;;;;;;7.70;1.60;;;;;;;;;;4686759;30;20570;-69
2022/01/08 10:31:51;;;;;;;7.30;1.90;;;;;;;;;;4697343;30;20080;-68
2022/01/08 10:34:26;;;;;;;6.32;1.45;;;;;;;;;;4712970;30;20053;-69
2022/01/08 10:37:03;;;;;;;3.63;1.88;;;;;;;;;;4732070;30;20172;-68
2022/01/08 10:39:36;;;;;;;7.80;1.88;;;;;;;;;;4746144;30;20112;-68
2022/01/08 10:42:24;;;;;;;4.85;1.52;;;;;;;;;;4727958;30;20065;-69
2022/01/08 10:44:55;;;;;;;5.30;1.65;;;;;;;;;;4714173;30;20106;-69
2022/01/08 10:47:25;;;;;;;4.55;1.55;;;;;;;;;;4714845;30;20077;-68
2022/01/08 10:50:06;;;;;;;6.38;1.73;;;;;;;;;;4690930;30;20074;-65
2022/01/08 10:52:46;;;;;;;8.50;1.80;;;;;;;;;;4736371;30;20060;-75
2022/01/08 10:55:31;;;;;;;5.25;1.52;;;;;;;;;;4734341;30;20053;-69
2022/01/08 10:58:02;;;;;;;6.70;1.58;;;;;;;;;;4749242;30;20056;-68
2022/01/08 11:00:32;;;;;;;4.72;1.13;;;;;;;;;;4781479;30;20056;-69
2022/01/08 11:03:03;;;;;;;5.15;1.70;;;;;;;;;;4766925;30;20185;-68
2022/01/08 11:05:53;;;;;;;7.10;1.65;;;;;;;;;;4752446;30;20082;-69
2022/01/08 11:08:24;;;;;;;4.13;1.40;;;;;;;;;;4719771;30;20053;-69
2022/01/08 11:10:55;;;;;;;6.68;1.73;;;;;;;;;;4749116;30;20068;-68
2022/01/08 11:13:26;;;;;;;7.70;1.52;;;;;;;;;;4734920;30;20064;-68
2022/01/08 11:15:56;;;;;;;5.93;1.52;;;;;;;;;;4749312;30;20056;-68
2022/01/08 11:18:27;;;;;;;4.18;1.48;;;;;;;;;;4715139;30;20061;-68
2022/01/08 11:21:00;;;;;;;4.97;1.55;;;;;;;;;;4683519;30;20070;-67
2022/01/08 11:23:34;;;;;;;6.20;1.60;;;;;;;;;;4682995;30;20062;-66
2022/01/08 11:26:10;;;;;;;5.38;1.70;;;;;;;;;;4684192;30;20062;-68
2022/01/08 11:28:47;;;;;;;6.15;1.35;;;;;;;;;;4669005;30;20058;-65
2022/01/08 11:31:20;;;;;;;4.72;1.52;;;;;;;;;;4662152;30;20081;-65
2022/01/08 11:33:56;;;;;;;4.60;1.50;;;;;;;;;;4665640;30;20055;-66
2022/01/08 11:36:27;;;;;;;9.52;1.73;;;;;;;;;;4682670;30;20057;-67
2022/01/08 11:38:58;;;;;;;5.72;1.70;;;;;;;;;;4668968;30;20061;-66
2022/01/08 11:41:29;;;;;;;7.30;2.05;;;;;;;;;;4682725;30;20062;-67
2022/01/08 11:44:03;;;;;;;8.43;1.52;;;;;;;;;;4699952;30;20065;-66
2022/01/08 11:46:36;;;;;;;3.58;1.65;;;;;;;;;;4709477;30;20113;-67
2022/01/08 11:49:06;;;;;;;7.15;1.70;;;;;;;;;;4699850;30;20424;-66
2022/01/08 11:51:37;;;;;;;5.13;2.00;;;;;;;;;;4674383;30;20055;-67
2022/01/08 11:54:07;;;;;;;5.60;1.73;;;;;;;;;;4648596;30;20079;-67
2022/01/08 11:56:39;;;;;;;5.07;1.33;;;;;;;;;;4636534;30;20063;-65
2022/01/08 11:59:18;;;;;;;6.35;1.58;;;;;;;;;;4656787;30;20069;-65
2022/01/08 12:02:19;;;;;;;5.95;1.40;;;;;;;;;;4665134;30;20058;-66
2022/01/08 12:04:53;;;;;;;5.32;2.55;;;;;;;;;;4652468;30;20071;-66
2022/01/08 12:07:36;;;;;;;5.80;1.60;;;;;;;;;;4665372;30;20059;-67
2022/01/08 12:10:20;;;;;;;4.20;1.67;;;;;;;;;;4665152;30;20063;-67
2022/01/08 12:12:59;;;;;;;4.15;1.30;;;;;;;;;;4682451;30;20170;-65
2022/01/08 12:15:45;;;;;;;7.93;1.83;;;;;;;;;;4682014;30;20061;-67
2022/01/08 12:18:20;;;;;;;5.38;1.58;;;;;;;;;;4682224;30;20062;-66
2022/01/08 12:20:52;;;;;;;7.22;1.70;;;;;;;;;;4678987;30;20063;-66
2022/01/08 12:23:37;;;;;;;5.40;1.20;;;;;;;;;;4650501;30;20503;-65
2022/01/08 12:26:29;;;;;;;5.18;1.67;;;;;;;;;;4676467;30;20064;-67
2022/01/08 12:29:00;;;;;;;5.10;1.60;;;;;;;;;;4716582;30;20077;-66
2022/01/08 12:31:40;;;;;;;6.13;2.38;;;;;;;;;;4716443;30;20507;-67
2022/01/08 12:34:35;;;;;;;6.05;1.40;;;;;;;;;;4687851;30;20083;-66
2022/01/08 12:37:12;;;;;;;5.05;1.48;;;;;;;;;;4698969;30;20531;-66
2022/01/08 12:39:43;;;;;;;7.53;1.50;;;;;;;;;;4699360;30;20092;-66
2022/01/08 12:42:27;;;;;;;4.32;1.30;;;;;;;;;;4728873;30;20069;-66
2022/01/08 12:44:59;;;;;;;5.93;1.50;;;;;;;;;;4734076;30;20109;-66
2022/01/08 12:48:06;;;;;;;6.20;1.05;;;;;;;;;;4719762;30;20060;-64
2022/01/08 12:50:43;;;;;;;9.43;1.77;;;;;;;;;;4698795;30;20072;-68
2022/01/08 12:53:30;;;;;;;4.70;1.33;;;;;;;;;;4678437;30;20055;-67
2022/01/08 12:56:02;;;;;;;5.95;1.60;;;;;;;;;;4647419;30;20084;-67
2022/01/08 12:58:39;;;;;;;5.63;1.30;;;;;;;;;;4648491;30;20134;-65
2022/01/08 13:01:12;;;;;;;7.65;1.52;;;;;;;;;;4694519;30;20057;-66
2022/01/08 13:03:56;;;;;;;4.15;1.20;;;;;;;;;;4716119;30;20065;-67
2022/01/08 13:06:31;;;;;;;6.47;1.83;;;;;;;;;;4687436;30;20057;-67
2022/01/08 13:09:04;;;;;;;3.40;1.00;;;;;;;;;;4715962;30;20068;-63
2022/01/08 13:11:37;;;;;;;3.85;1.23;;;;;;;;;;4716109;30;20065;-65
2022/01/08 13:14:11;;;;;;;6.85;1.05;;;;;;;;;;4724126;30;20421;-66
2022/01/08 13:16:42;;;;;;;2.20;1.15;;;;;;;;;;4736930;30;20064;-66
2022/01/08 13:19:14;;;;;;;6.45;1.70;;;;;;;;;;4715808;30;20057;-66
2022/01/08 13:21:48;;;;;;;6.82;2.72;;;;;;;;;;4715943;30;20434;-67
2022/01/08 13:24:31;;;;;;;5.32;1.33;;;;;;;;;;4698085;30;20057;-67
2022/01/08 13:27:06;;;;;;;6.20;1.48;;;;;;;;;;4698487;30;20069;-67
2022/01/08 13:29:43;;;;;;;4.90;1.42;;;;;;;;;;4698359;30;20074;-65
2022/01/08 13:32:20;;;;;;;6.25;1.77;;;;;;;;;;4701625;30;20174;-67
2022/01/08 13:34:58;;;;;;;6.80;1.90;;;;;;;;;;4732974;30;20075;-67
2022/01/08 13:37:30;;;;;;;6.82;1.60;;;;;;;;;;4750604;30;20052;-67
2022/01/08 13:40:07;;;;;;;6.20;1.35;;;;;;;;;;4767941;30;20051;-67
2022/01/08 13:42:44;;;;;;;5.60;1.50;;;;;;;;;;4768347;30;20100;-66
2022/01/08 13:45:15;;;;;;;6.60;1.30;;;;;;;;;;4750435;30;20056;-64
2022/01/08 13:47:55;;;;;;;;;;;;;;;;;;4750909;30;20064;-67
2022/01/08 13:50:33;;;;;;;5.18;1.25;;;;;;;;;;4741980;30;19926;-66
2022/01/08 13:53:07;;;;;;;4.20;1.52;;;;;;;;;;4768291;30;20063;-67
2022/01/08 13:55:45;;;;;;;4.30;1.42;;;;;;;;;;4738993;30;20055;-68
2022/01/08 13:58:17;;;;;;;;;;;;;;;;;;4768443;30;20055;-68
2022/01/08 14:00:58;;;;;;;6.07;1.42;;;;;;;;;;4753035;30;19932;-67
2022/01/08 14:03:45;;;;;;;4.47;1.35;;;;;;;;;;4764556;30;20077;-66
2022/01/08 14:06:28;;;;;;;9.52;1.48;;;;;;;;;;4750094;30;20413;-66
2022/01/08 14:09:00;;;;;;;6.88;1.58;;;;;;;;;;4750165;30;20056;-67
2022/01/08 14:11:32;;;;;;;5.20;1.40;;;;;;;;;;4735287;30;20060;-66
2022/01/08 14:14:10;;;;;;;4.75;1.50;;;;;;;;;;4748951;30;20056;-68
2022/01/08 14:16:41;;;;;;;5.50;1.60;;;;;;;;;;4771094;29;20063;-67
2022/01/08 14:19:21;;;;;;;4.07;1.27;;;;;;;;;;4803521;29;20059;-66
2022/01/08 14:21:58;;;;;;;6.85;1.38;;;;;;;;;;4805151;29;20070;-67
2022/01/08 14:24:40;;;;;;;6.75;1.60;;;;;;;;;;4822020;29;20574;-68
2022/01/08 14:27:13;;;;;;;7.47;1.90;;;;;;;;;;4819281;29;20170;-66
2022/01/08 14:29:46;;;;;;;4.45;1.55;;;;;;;;;;4785438;30;20063;-66
2022/01/08 14:32:17;;;;;;;5.18;2.00;;;;;;;;;;4771027;30;20067;-67
2022/01/08 14:34:52;;;;;;;;;;;;;;;;;;4785944;30;20535;-66
2022/01/08 14:37:37;;;;;;;4.72;1.48;;;;;;;;;;4785756;30;19925;-66
2022/01/08 14:40:28;;;;;;;3.65;1.02;;;;;;;;;;4770770;30;20452;-67
2022/01/08 14:43:07;;;;;;;8.50;1.80;;;;;;;;;;4785373;30;20108;-66
2022/01/08 14:45:48;;;;;;;6.18;1.70;;;;;;;;;;4752599;30;20067;-66
2022/01/08 14:48:23;;;;;;;5.38;1.75;;;;;;;;;;4737916;30;20064;-67
2022/01/08 14:50:57;;;;;;;3.03;1.00;;;;;;;;;;4767417;30;20428;-67
2022/01/08 14:53:28;;;;;;;5.45;1.75;;;;;;;;;;4769928;29;20059;-67
2022/01/08 14:55:59;;;;;;;4.57;1.58;;;;;;;;;;4782523;29;20074;-67
2022/01/08 14:58:29;;;;;;;4.80;1.13;;;;;;;;;;4767340;30;20421;-66
2022/01/08 15:00:59;;;;;;;5.07;1.65;;;;;;;;;;4767429;30;20071;-67
2022/01/08 15:03:30;;;;;;;4.93;1.70;;;;;;;;;;4737724;30;20059;-68
2022/01/08 15:06:01;;;;;;;5.68;2.08;;;;;;;;;;4767682;30;20051;-67
2022/01/08 15:08:31;;;;;;;5.32;1.35;;;;;;;;;;4788339;29;20054;-67
2022/01/08 15:11:01;;;;;;;6.93;2.03;;;;;;;;;;4803060;29;20067;-68
2022/01/08 15:13:31;;;;;;;6.35;1.65;;;;;;;;;;4788354;29;20054;-70
2022/01/08 15:16:04;;;;;;;6.03;1.42;;;;;;;;;;4803052;29;20397;-67
2022/01/08 15:18:38;;;;;;;5.85;1.75;;;;;;;;;;4802874;29;20066;-69
2022/01/08 15:21:09;;;;;;;8.23;1.50;;;;;;;;;;4784852;30;20071;-67
2022/01/08 15:23:40;;;;;;;6.53;1.50;;;;;;;;;;4796750;29;20062;-68
2022/01/08 15:26:10;;;;;;;4.22;1.63;;;;;;;;;;4802974;29;20063;-66
2022/01/08 15:28:41;;;;;;;6.55;1.55;;;;;;;;;;4802627;29;20066;-70
2022/01/08 15:31:13;;;;;;;3.45;1.52;;;;;;;;;;4788099;29;20066;-66
2022/01/08 15:33:43;;;;;;;3.92;1.05;;;;;;;;;;4802878;29;20420;-70
2022/01/08 15:36:13;;;;;;;6.68;1.90;;;;;;;;;;4788302;29;20107;-65